createdAt,value
2023-01-15T00:02:24.711Z,-0.34
2023-01-15T00:04:53.208Z,-0.52
2023-01-15T00:07:21.715Z,-0.83
2023-01-15T00:09:51.417Z,-0.37
2023-01-15T00:12:19.956Z,-0.44
2023-01-15T00:14:49.804Z,-0.83
2023-01-15T00:17:18.239Z,-0.78
2023-01-15T00:19:47.748Z,-0.42
2023-01-15T00:22:16.627Z,0.08
2023-01-15T00:25:02.643Z,-0.23
2023-01-15T00:27:44.260Z,0.04
2023-01-15T00:30:16.156Z,-0.09
2023-01-15T00:32:45.874Z,-0.53
2023-01-15T00:35:16.131Z,-0.46
2023-01-15T00:37:44.818Z,-0.15
2023-01-15T00:40:13.514Z,0.39
2023-01-15T00:42:43.132Z,0.72
2023-01-15T00:45:17.265Z,-0.42
2023-01-15T00:47:48.307Z,-0.23
2023-01-15T00:50:17.265Z,-0.66
2023-01-15T00:52:45.698Z,-0.54
2023-01-15T00:55:14.195Z,-0.76
2023-01-15T00:57:42.387Z,-0.71
2023-01-15T01:00:12.727Z,-0.54
2023-01-15T01:02:43.275Z,-0.14
2023-01-15T01:05:11.743Z,-0.42
2023-01-15T01:07:43.169Z,-0.07
2023-01-15T01:10:12.145Z,-0.35
2023-01-15T01:12:41.344Z,-0.16
2023-01-15T01:15:11.115Z,-0.39
2023-01-15T01:17:42.413Z,-0.18
2023-01-15T01:20:17.175Z,-0.84
2023-01-15T01:22:45.951Z,-0.25
2023-01-15T01:25:14.387Z,-0.66
2023-01-15T01:27:45.926Z,0.09
2023-01-15T01:30:15.933Z,0.18
2023-01-15T01:32:46.523Z,-0.11
2023-01-15T01:35:16.661Z,0.19
2023-01-15T01:37:45.461Z,0.20
2023-01-15T01:40:14.408Z,-0.09
2023-01-15T01:42:42.800Z,-0.48
2023-01-15T01:45:25.091Z,-0.36
2023-01-15T01:47:55.831Z,-0.85
2023-01-15T01:50:27.111Z,-0.52
2023-01-15T01:53:03.115Z,-0.36
2023-01-15T01:55:34.752Z,0.09
2023-01-15T01:58:05.735Z,-0.08
2023-01-15T02:00:42.473Z,-0.52
2023-01-15T02:03:11.563Z,-0.15
2023-01-15T02:05:47.360Z,-0.13
2023-01-15T02:08:16.043Z,-0.56
2023-01-15T02:10:44.219Z,-0.59
2023-01-15T02:13:19.069Z,0.14
2023-01-15T02:15:51.931Z,-0.08
2023-01-15T02:18:25.337Z,0.49
2023-01-15T02:20:59.963Z,0.06
2023-01-15T02:23:39.942Z,0.10
2023-01-15T02:29:33.708Z,-0.26
2023-01-15T02:32:09.243Z,-0.04
2023-01-15T02:34:44.889Z,-0.36
2023-01-15T02:37:20.463Z,0.31
2023-01-15T02:39:51.029Z,0.01
2023-01-15T02:42:26.163Z,-0.07
2023-01-15T02:44:59.919Z,0.61
2023-01-15T02:47:34.739Z,0.79
2023-01-15T02:50:08.648Z,-0.06
2023-01-15T02:52:45.770Z,-0.74
2023-01-15T02:55:21.885Z,-0.07
2023-01-15T02:57:55.364Z,-0.02
2023-01-15T03:00:27.946Z,0.24
2023-01-15T03:03:02.433Z,-0.37
2023-01-15T03:05:37.896Z,0.22
2023-01-15T03:08:10.369Z,0.56
2023-01-15T03:10:47.661Z,0.41
2023-01-15T03:13:20.978Z,-0.46
2023-01-15T03:16:17.419Z,-0.20
2023-01-15T03:18:54.686Z,0.67
2023-01-15T03:21:32.653Z,0.51
2023-01-15T03:24:06.033Z,0.05
2023-01-15T03:26:34.600Z,-0.38
2023-01-15T03:29:05.971Z,0.45
2023-01-15T03:31:37.801Z,-0.06
2023-01-15T03:34:07.375Z,0.17
2023-01-15T03:36:36.263Z,-0.23
2023-01-15T03:39:05.542Z,-0.21
2023-01-15T03:42:00.704Z,-0.67
2023-01-15T03:44:40.174Z,-0.80
2023-01-15T03:47:21.841Z,-0.05
2023-01-15T03:50:00.710Z,0.24
2023-01-15T03:52:43.668Z,0.55
2023-01-15T03:55:17.010Z,0.27
2023-01-15T03:58:00.372Z,0.85
2023-01-15T04:00:37.456Z,-0.03
2023-01-15T04:03:10.676Z,-0.39
2023-01-15T04:05:41.055Z,-0.32
2023-01-15T04:08:11.352Z,-1.04
2023-01-15T04:10:39.888Z,-0.35
2023-01-15T04:13:11.853Z,-0.73
2023-01-15T04:15:42.598Z,0.37
2023-01-15T04:18:12.582Z,-0.14
2023-01-15T04:20:41.336Z,-0.03
2023-01-15T04:23:10.060Z,0.35
2023-01-15T04:25:38.310Z,0.01
2023-01-15T04:28:06.696Z,0.05
2023-01-15T04:30:35.437Z,-0.01
2023-01-15T04:33:04.524Z,-0.39
2023-01-15T04:35:36.129Z,0.28
2023-01-15T04:38:04.674Z,0.19
2023-01-15T04:40:50.644Z,0.48
2023-01-15T04:43:36.718Z,0.49
2023-01-15T04:46:05.367Z,0.05
2023-01-15T04:48:33.545Z,0.48
2023-01-15T04:51:05.651Z,0.67
2023-01-15T04:53:34.902Z,0.62
2023-01-15T04:56:03.767Z,-0.05
2023-01-15T04:58:32.883Z,-0.79
2023-01-15T05:01:01.873Z,-0.38
2023-01-15T05:03:30.654Z,-0.06
2023-01-15T05:06:02.716Z,-0.17
2023-01-15T05:08:35.165Z,0.08
2023-01-15T05:11:06.639Z,0.38
2023-01-15T05:13:35.686Z,0.13
2023-01-15T05:16:19.289Z,0.30
2023-01-15T05:18:48.804Z,0.21
2023-01-15T05:21:20.793Z,0.30
2023-01-15T05:23:51.584Z,-0.40
2023-01-15T05:26:21.221Z,0.09
2023-01-15T05:28:50.086Z,0.13
2023-01-15T05:31:20.709Z,-0.15
2023-01-15T05:33:51.212Z,-0.22
2023-01-15T05:36:21.723Z,-0.25
2023-01-15T05:38:52.455Z,0.17
2023-01-15T05:41:39.992Z,0.02
2023-01-15T05:44:10.541Z,0.41
2023-01-15T05:46:41.153Z,0.16
2023-01-15T05:49:12.975Z,0.34
2023-01-15T05:51:42.107Z,0.23
2023-01-15T05:54:14.520Z,-0.10
2023-01-15T05:56:43.851Z,-0.13
2023-01-15T05:59:13.116Z,-0.13
2023-01-15T06:01:42.100Z,-0.19
2023-01-15T06:04:14.256Z,-0.33
2023-01-15T06:06:43.528Z,-0.77
2023-01-15T06:09:13.471Z,-0.43
2023-01-15T06:11:42.472Z,0.03
2023-01-15T06:14:12.705Z,-0.29
2023-01-15T06:16:41.905Z,-0.22
2023-01-15T06:19:14.782Z,0.06
2023-01-15T06:21:43.412Z,0.03
2023-01-15T06:24:17.314Z,-0.24
2023-01-15T06:26:46.114Z,-0.23
2023-01-15T06:29:18.830Z,-0.38
2023-01-15T06:31:49.599Z,-1.11
2023-01-15T06:34:18.224Z,0.14
2023-01-15T06:36:46.712Z,0.33
2023-01-15T06:39:16.562Z,-0.56
2023-01-15T06:42:02.546Z,-0.10
2023-01-15T06:44:48.727Z,0.08
2023-01-15T06:47:22.856Z,-0.24
2023-01-15T06:50:00.438Z,-0.18
2023-01-15T06:55:20.361Z,-0.38
2023-01-15T06:57:48.794Z,-0.40
2023-01-15T07:00:18.061Z,-0.81
2023-01-15T07:02:46.733Z,0.35
2023-01-15T07:05:15.117Z,-0.04
2023-01-15T07:07:43.613Z,-0.51
2023-01-15T07:10:15.959Z,0.51
2023-01-15T07:12:45.859Z,0.63
2023-01-15T07:15:14.495Z,0.21
2023-01-15T07:17:42.692Z,-0.14
2023-01-15T07:20:12.560Z,0.06
2023-01-15T07:22:41.065Z,0.15
2023-01-15T07:25:13.536Z,-0.64
2023-01-15T07:27:42.071Z,-0.44
2023-01-15T07:30:16.341Z,0.42
2023-01-15T07:32:44.962Z,0.09
2023-01-15T07:35:13.425Z,0.63
2023-01-15T07:37:44.214Z,0.82
2023-01-15T07:40:15.920Z,0.33
2023-01-15T07:43:02.170Z,-0.17
2023-01-15T07:45:49.870Z,-0.01
2023-01-15T07:48:36.225Z,0.33
2023-01-15T07:51:05.168Z,0.54
2023-01-15T07:53:33.411Z,1.00
2023-01-15T07:56:02.278Z,0.91
2023-01-15T07:58:31.114Z,0.91
2023-01-15T08:01:01.557Z,0.25
2023-01-15T08:03:30.560Z,0.75
2023-01-15T08:05:59.646Z,1.04
2023-01-15T08:08:28.352Z,0.51
2023-01-15T08:11:14.482Z,0.44
2023-01-15T08:14:00.759Z,0.57
2023-01-15T08:16:31.244Z,0.62
2023-01-15T08:19:00.134Z,0.73
2023-01-15T08:21:31.587Z,0.60
2023-01-15T08:24:00.484Z,0.74
2023-01-15T08:26:29.460Z,0.45
2023-01-15T08:28:59.606Z,0.07
2023-01-15T08:31:29.168Z,0.39
2023-01-15T08:34:01.470Z,0.00
2023-01-15T08:36:30.758Z,0.79
2023-01-15T08:39:00.026Z,0.37
2023-01-15T08:41:31.012Z,0.82
2023-01-15T08:44:00.108Z,0.25
2023-01-15T08:46:28.586Z,0.55
2023-01-15T08:48:58.547Z,0.75
2023-01-15T08:51:27.578Z,0.36
2023-01-15T08:53:56.042Z,0.93
2023-01-15T08:56:24.507Z,1.19
2023-01-15T08:58:53.080Z,1.35
2023-01-15T09:01:21.772Z,1.36
2023-01-15T09:03:50.365Z,1.00
2023-01-15T09:06:20.777Z,1.28
2023-01-15T09:08:49.473Z,1.42
2023-01-15T09:11:17.643Z,0.51
2023-01-15T09:13:46.953Z,1.11
2023-01-15T09:16:17.591Z,1.40
2023-01-15T09:18:46.275Z,0.88
2023-01-15T09:21:14.503Z,1.32
2023-01-15T09:23:44.319Z,1.47
2023-01-15T09:26:27.980Z,0.94
2023-01-15T09:28:57.086Z,0.90
2023-01-15T09:31:28.291Z,0.02
2023-01-15T09:33:57.843Z,0.91
2023-01-15T09:36:29.496Z,1.32
2023-01-15T09:39:01.126Z,1.49
2023-01-15T09:42:03.869Z,1.55
2023-01-15T09:44:44.783Z,0.78
2023-01-15T09:47:17.166Z,0.94
2023-01-15T09:49:59.369Z,1.31
2023-01-15T09:53:11.032Z,1.62
2023-01-15T09:55:47.204Z,1.47
2023-01-15T09:58:18.564Z,1.70
2023-01-15T10:00:51.805Z,1.65
2023-01-15T10:03:30.449Z,1.45
2023-01-15T10:06:10.270Z,1.26
2023-01-15T10:08:42.161Z,1.26
2023-01-15T10:11:46.816Z,0.28
2023-01-15T10:14:39.277Z,0.85
2023-01-15T10:17:23.377Z,1.00
2023-01-15T10:19:53.482Z,0.73
2023-01-15T10:22:33.792Z,1.06
2023-01-15T10:25:10.939Z,1.26
2023-01-15T10:27:45.084Z,1.44
2023-01-15T10:30:18.269Z,1.68
2023-01-15T10:33:02.055Z,0.32
2023-01-15T10:35:41.042Z,0.99
2023-01-15T10:38:17.912Z,1.37
2023-01-15T10:41:07.388Z,1.20
2023-01-15T10:43:48.127Z,0.18
2023-01-15T10:46:21.911Z,1.06
2023-01-15T10:48:53.420Z,0.42
2023-01-15T10:51:28.083Z,1.12
2023-01-15T10:54:04.562Z,1.04
2023-01-15T10:56:39.732Z,0.79
2023-01-15T10:59:22.392Z,0.85
2023-01-15T11:01:54.492Z,1.05
2023-01-15T11:04:23.801Z,1.02
2023-01-15T11:06:52.352Z,1.27
2023-01-15T11:09:24.015Z,1.85
2023-01-15T11:12:12.543Z,1.74
2023-01-15T11:15:01.007Z,1.42
2023-01-15T11:17:50.222Z,1.47
2023-01-15T11:20:30.838Z,0.38
2023-01-15T11:23:09.448Z,0.89
2023-01-15T11:25:39.690Z,1.09
2023-01-15T11:28:09.984Z,1.51
2023-01-15T11:30:41.220Z,1.01
2023-01-15T11:33:23.515Z,1.15
2023-01-15T11:35:58.343Z,0.50
2023-01-15T11:38:28.154Z,1.42
2023-01-15T11:40:59.839Z,1.02
2023-01-15T11:43:48.640Z,1.02
2023-01-15T11:46:47.690Z,0.80
2023-01-15T11:49:39.403Z,0.66
2023-01-15T11:52:11.923Z,0.90
2023-01-15T11:54:44.184Z,0.63
2023-01-15T11:57:13.400Z,1.18
2023-01-15T11:59:41.943Z,1.10
2023-01-15T12:02:23.152Z,0.81
2023-01-15T12:04:56.255Z,0.98
2023-01-15T12:07:26.848Z,1.30
2023-01-15T12:10:18.714Z,0.85
2023-01-15T12:13:02.376Z,1.09
2023-01-15T12:15:45.444Z,0.96
2023-01-15T12:18:58.448Z,0.41
2023-01-15T12:21:59.870Z,0.98
2023-01-15T12:24:48.317Z,0.64
2023-01-15T12:27:33.967Z,0.52
2023-01-15T12:30:07.693Z,0.46
2023-01-15T12:32:44.455Z,0.24
2023-01-15T12:35:20.262Z,0.29
2023-01-15T12:37:53.980Z,0.69
2023-01-15T12:40:30.700Z,-0.11
2023-01-15T12:43:19.561Z,0.25
2023-01-15T12:45:53.534Z,0.88
2023-01-15T12:48:30.252Z,0.58
2023-01-15T12:51:02.629Z,0.77
2023-01-15T12:53:37.664Z,0.72
2023-01-15T12:56:15.987Z,0.32
2023-01-15T12:58:49.540Z,0.56
2023-01-15T13:01:33.474Z,0.75
2023-01-15T13:04:12.463Z,0.60
2023-01-15T13:06:48.458Z,0.55
2023-01-15T13:09:30.287Z,0.47
2023-01-15T13:12:00.450Z,0.48
2023-01-15T13:14:28.980Z,0.96
2023-01-15T13:17:03.445Z,0.69
2023-01-15T13:19:44.701Z,0.48
2023-01-15T13:22:22.289Z,0.29
2023-01-15T13:25:19.600Z,0.66
2023-01-15T13:28:01.477Z,0.40
2023-01-15T13:30:52.449Z,0.81
2023-01-15T13:33:29.579Z,0.89
2023-01-15T13:36:07.756Z,0.89
2023-01-15T13:38:41.896Z,0.85
2023-01-15T13:41:11.349Z,0.45
2023-01-15T13:43:44.291Z,-0.06
2023-01-15T13:46:14.681Z,0.00
2023-01-15T13:48:46.058Z,0.42
2023-01-15T13:51:30.909Z,-0.09
2023-01-15T13:54:04.337Z,0.19
2023-01-15T13:56:36.207Z,0.18
2023-01-15T13:59:08.255Z,0.62
2023-01-15T14:01:39.378Z,0.73
2023-01-15T14:04:15.370Z,0.84
2023-01-15T14:06:48.845Z,0.59
2023-01-15T14:09:32.156Z,0.43
2023-01-15T14:12:11.034Z,0.26
2023-01-15T14:14:59.238Z,0.39
2023-01-15T14:17:57.703Z,0.44
2023-01-15T14:20:44.682Z,0.50
2023-01-15T14:23:32.380Z,0.65
2023-01-15T14:26:13.379Z,0.11
2023-01-15T14:29:03.238Z,-0.51
2023-01-15T14:31:44.255Z,-0.08
2023-01-15T14:34:18.566Z,0.09
2023-01-15T14:37:01.608Z,-0.07
2023-01-15T14:39:33.808Z,-0.35
2023-01-15T14:42:35.516Z,0.03
2023-01-15T14:45:08.432Z,0.08
2023-01-15T14:47:46.793Z,0.05
2023-01-15T14:50:33.805Z,-0.15
2023-01-15T14:53:07.925Z,-0.11
2023-01-15T14:55:49.239Z,-0.38
2023-01-15T14:58:31.615Z,0.30
2023-01-15T15:01:03.882Z,0.52
2023-01-15T15:03:38.646Z,0.11
2023-01-15T15:06:12.486Z,0.00
2023-01-15T15:08:43.648Z,0.28
2023-01-15T15:11:36.048Z,0.08
2023-01-15T15:14:07.578Z,-0.41
2023-01-15T15:16:43.856Z,0.25
2023-01-15T15:19:19.684Z,-0.10
2023-01-15T15:21:49.862Z,-0.21
2023-01-15T15:24:24.805Z,-0.09
2023-01-15T15:26:53.510Z,-0.35
2023-01-15T15:29:26.704Z,-0.77
2023-01-15T15:32:01.826Z,-0.38
2023-01-15T15:34:34.267Z,-0.23
2023-01-15T15:37:05.657Z,-0.58
2023-01-15T15:39:45.922Z,-0.46
2023-01-15T15:42:39.809Z,-0.90
2023-01-15T15:45:35.019Z,-0.21
2023-01-15T15:48:31.675Z,-0.45
2023-01-15T15:51:03.170Z,-0.62
2023-01-15T15:53:33.479Z,-1.15
2023-01-15T15:56:10.934Z,-0.80
2023-01-15T15:58:45.994Z,-0.98
2023-01-15T16:01:41.993Z,-0.73
2023-01-15T16:04:18.000Z,-1.05
2023-01-15T16:06:48.795Z,-1.42
2023-01-15T16:09:23.121Z,-0.69
2023-01-15T16:11:55.726Z,-0.75
2023-01-15T16:14:27.945Z,-0.74
2023-01-15T16:16:56.985Z,-0.80
2023-01-15T16:19:27.795Z,-0.36
2023-01-15T16:21:58.279Z,-0.89
2023-01-15T16:24:29.461Z,-1.78
2023-01-15T16:27:03.945Z,-1.23
2023-01-15T16:29:35.086Z,-0.78
2023-01-15T16:32:12.585Z,-0.99
2023-01-15T16:34:41.916Z,-1.49
2023-01-15T16:37:27.473Z,-1.53
2023-01-15T16:39:56.512Z,-1.52
2023-01-15T16:42:28.931Z,-1.38
2023-01-15T16:45:01.239Z,-1.22
2023-01-15T16:47:37.582Z,-1.20
2023-01-15T16:50:31.496Z,-1.22
2023-01-15T16:53:05.951Z,-1.73
2023-01-15T16:55:43.249Z,-1.63
2023-01-15T16:58:23.860Z,-2.11
2023-01-15T17:00:55.946Z,-1.89
2023-01-15T17:03:26.360Z,-1.66
2023-01-15T17:05:56.894Z,-1.49
2023-01-15T17:08:34.488Z,-1.77
2023-01-15T17:11:05.318Z,-2.22
2023-01-15T17:13:37.752Z,-1.49
2023-01-15T17:16:16.863Z,-1.71
2023-01-15T17:18:45.764Z,-1.57
2023-01-15T17:21:21.659Z,-2.39
2023-01-15T17:23:52.758Z,-1.63
2023-01-15T17:26:25.129Z,-1.86
2023-01-15T17:28:53.977Z,-1.84
2023-01-15T17:31:28.555Z,-1.81
2023-01-15T17:34:04.007Z,-1.03
2023-01-15T17:36:33.039Z,-1.58
2023-01-15T17:39:03.228Z,-1.51
2023-01-15T17:41:32.241Z,-2.04
2023-01-15T17:44:03.153Z,-1.85
2023-01-15T17:46:31.891Z,-2.28
2023-01-15T17:49:00.720Z,-1.41
2023-01-15T17:51:30.527Z,-1.61
2023-01-15T17:53:59.429Z,-1.64
2023-01-15T17:56:47.018Z,-1.05
2023-01-15T17:59:41.490Z,-1.60
2023-01-15T18:02:34.163Z,-1.50
2023-01-15T18:05:20.493Z,-1.04
2023-01-15T18:07:49.345Z,-1.16
2023-01-15T18:10:19.203Z,-2.00
2023-01-15T18:12:53.108Z,-1.11
2023-01-15T18:15:22.399Z,-1.78
2023-01-15T18:17:51.369Z,-2.08
2023-01-15T18:20:20.331Z,-1.91
2023-01-15T18:22:48.975Z,-1.61
2023-01-15T18:25:20.522Z,-1.38
2023-01-15T18:27:51.467Z,-1.54
2023-01-15T18:30:20.256Z,-2.05
2023-01-15T18:32:49.008Z,-1.49
2023-01-15T18:35:18.545Z,-1.18
2023-01-15T18:37:46.942Z,-1.51
2023-01-15T18:40:18.090Z,-1.48
2023-01-15T18:43:04.075Z,-1.89
2023-01-15T18:45:51.287Z,-1.93
2023-01-15T18:48:20.017Z,-2.23
2023-01-15T18:50:49.532Z,-1.59
2023-01-15T18:53:18.250Z,-1.69
2023-01-15T18:55:46.725Z,-1.77
2023-01-15T18:58:15.155Z,-1.81
2023-01-15T19:00:45.152Z,-2.04
2023-01-15T19:03:13.741Z,-2.01
2023-01-15T19:05:42.234Z,-1.62
2023-01-15T19:08:10.453Z,-1.95
2023-01-15T19:10:38.833Z,-1.80
2023-01-15T19:13:07.249Z,-2.07
2023-01-15T19:15:54.128Z,-1.94
2023-01-15T19:18:41.089Z,-1.66
2023-01-15T19:21:12.972Z,-1.92
2023-01-15T19:23:41.668Z,-2.15
2023-01-15T19:26:10.256Z,-1.73
2023-01-15T19:28:38.470Z,-2.64
2023-01-15T19:31:26.942Z,-2.01
2023-01-15T19:34:13.099Z,-1.61
2023-01-15T19:36:47.622Z,-1.82
2023-01-15T19:39:17.714Z,-2.30
2023-01-15T19:42:03.465Z,-2.11
2023-01-15T19:44:49.619Z,-2.20
2023-01-15T19:47:42.776Z,-2.20
2023-01-15T19:50:21.801Z,-2.00
2023-01-15T19:52:52.420Z,-2.40
2023-01-15T19:55:21.884Z,-2.16
2023-01-15T19:57:57.841Z,-2.28
2023-01-15T20:00:26.917Z,-2.39
2023-01-15T20:02:56.562Z,-2.04
2023-01-15T20:05:30.815Z,-1.62
2023-01-15T20:07:59.821Z,-1.50
2023-01-15T20:10:30.188Z,-2.09
2023-01-15T20:13:16.153Z,-2.02
2023-01-15T20:15:47.040Z,-2.47
2023-01-15T20:18:17.375Z,-2.12
2023-01-15T20:20:47.593Z,-1.96
2023-01-15T20:23:16.247Z,-1.58
2023-01-15T20:25:48.942Z,-1.91
2023-01-15T20:28:17.872Z,-2.27
2023-01-15T20:30:46.461Z,-2.02
2023-01-15T20:33:14.628Z,-2.34
2023-01-15T20:35:43.035Z,-2.60
2023-01-15T20:38:13.128Z,-2.34
2023-01-15T20:40:41.677Z,-2.23
2023-01-15T20:43:29.046Z,-1.87
2023-01-15T20:46:08.676Z,-2.38
2023-01-15T20:48:55.042Z,-1.82
2023-01-15T20:51:23.555Z,-1.90
2023-01-15T20:53:53.437Z,-1.70
2023-01-15T20:56:21.906Z,-1.79
2023-01-15T20:58:51.590Z,-1.74
2023-01-15T21:01:20.415Z,-2.09
2023-01-15T21:03:48.985Z,-1.84
2023-01-15T21:06:17.227Z,-1.87
2023-01-15T21:08:46.128Z,-2.32
2023-01-15T21:11:15.978Z,-1.94
2023-01-15T21:13:47.171Z,-2.19
2023-01-15T21:16:16.586Z,-1.94
2023-01-15T21:18:46.433Z,-1.73
2023-01-15T21:21:17.247Z,-1.97
2023-01-15T21:23:46.871Z,-2.06
2023-01-15T21:26:17.641Z,-2.00
2023-01-15T21:28:46.149Z,-2.19
2023-01-15T21:31:15.570Z,-1.93
2023-01-15T21:33:44.096Z,-1.50
2023-01-15T21:36:13.749Z,-1.87
2023-01-15T21:38:42.691Z,-2.36
2023-01-15T21:41:13.410Z,-1.90
2023-01-15T21:44:16.154Z,-2.12
2023-01-15T21:46:44.773Z,-2.39
2023-01-15T21:49:12.903Z,-2.00
2023-01-15T21:51:41.330Z,-1.73
2023-01-15T21:54:09.599Z,-2.09
2023-01-15T21:56:39.673Z,-1.47
2023-01-15T21:59:11.808Z,-1.61
2023-01-15T22:01:40.467Z,-1.89
2023-01-15T22:04:09.147Z,-1.81
2023-01-15T22:06:38.105Z,-1.75
2023-01-15T22:09:06.704Z,-1.60
2023-01-15T22:11:44.855Z,-1.66
2023-01-15T22:14:16.529Z,-1.70
2023-01-15T22:16:46.430Z,-1.92
2023-01-15T22:19:19.934Z,-1.69
2023-01-15T22:21:49.955Z,-1.50
2023-01-15T22:24:19.813Z,-1.65
2023-01-15T22:26:53.997Z,-1.93
2023-01-15T22:29:26.144Z,-1.89
2023-01-15T22:31:54.936Z,-2.12
2023-01-15T22:34:24.810Z,-1.69
2023-01-15T22:36:54.440Z,-1.74
2023-01-15T22:39:24.187Z,-1.53
2023-01-15T22:42:10.310Z,-1.45
2023-01-15T22:44:40.648Z,-1.54
2023-01-15T22:47:09.166Z,-1.35
2023-01-15T22:49:37.874Z,-1.72
2023-01-15T22:52:06.590Z,-1.48
2023-01-15T22:54:38.235Z,-2.04
2023-01-15T22:57:06.943Z,-1.88
2023-01-15T22:59:35.239Z,-1.73
2023-01-15T23:02:05.117Z,-1.75
2023-01-15T23:04:34.125Z,-1.27
2023-01-15T23:07:03.065Z,-1.83
2023-01-15T23:09:31.497Z,-1.74
2023-01-15T23:11:59.680Z,-1.31
2023-01-15T23:14:28.177Z,-1.54
2023-01-15T23:16:56.363Z,-2.01
2023-01-15T23:19:28.319Z,-2.00
2023-01-15T23:21:57.056Z,-1.73
2023-01-15T23:24:25.808Z,-1.48
2023-01-15T23:26:54.231Z,-1.64
2023-01-15T23:29:22.443Z,-1.38
2023-01-15T23:31:50.866Z,-1.48
2023-01-15T23:34:19.276Z,-1.73
2023-01-15T23:36:49.708Z,-1.61
2023-01-15T23:39:18.152Z,-1.50
2023-01-15T23:42:04.361Z,-1.88
2023-01-15T23:44:50.326Z,-1.96
2023-01-15T23:47:18.839Z,-1.52
2023-01-15T23:49:47.298Z,-1.54
2023-01-15T23:52:16.900Z,-1.92
2023-01-15T23:54:45.343Z,-1.89
2023-01-15T23:57:13.766Z,-1.73
2023-01-15T23:59:42.191Z,-1.39
